createdAt,value
2022-08-08T00:00:52.314Z,-55.91828
2022-08-08T00:06:04.002Z,-55.81478
2022-08-08T00:11:08.092Z,-56.03147
2022-08-08T00:16:14.206Z,-55.94698
2022-08-08T00:21:16.516Z,-56.33946
2022-08-08T00:26:21.749Z,-55.75746
2022-08-08T00:32:21.320Z,-55.75767
2022-08-08T00:37:45.330Z,-56.34106
2022-08-08T00:42:57.864Z,-56.15404
2022-08-08T00:48:29.533Z,-56.42397
2022-08-08T00:53:31.369Z,-56.40924
2022-08-08T00:58:54.210Z,-56.07625
2022-08-08T01:04:02.838Z,-56.13926
2022-08-08T01:09:36.069Z,-56.49789
2022-08-08T01:14:53.578Z,-56.42145
2022-08-08T01:20:03.072Z,-56.15956
2022-08-08T01:25:05.084Z,-56.36868
2022-08-08T01:30:09.354Z,-56.01999
2022-08-08T01:35:12.419Z,-56.10488
2022-08-08T01:40:18.516Z,-55.78685
2022-08-08T01:45:22.747Z,-56.22801
2022-08-08T01:50:26.222Z,-56.0062
2022-08-08T01:56:27.257Z,-55.85967
2022-08-08T02:01:54.776Z,-55.67028
2022-08-08T02:07:04.183Z,-55.33471
2022-08-08T02:12:05.178Z,-54.7914
2022-08-08T02:17:18.000Z,-55.05953
2022-08-08T02:22:21.202Z,-55.48146
2022-08-08T02:27:38.888Z,-55.81351
2022-08-08T02:42:44.688Z,-55.67987
2022-08-08T02:47:54.744Z,-55.82532
2022-08-08T02:52:56.144Z,-55.97945
2022-08-08T02:57:57.503Z,-56.08534
2022-08-08T03:03:03.988Z,-56.67478
2022-08-08T03:08:08.970Z,-56.72055
2022-08-08T03:15:55.709Z,-56.55803
2022-08-08T03:21:10.071Z,-57.54455
2022-08-08T03:26:15.545Z,-57.72118
2022-08-08T03:42:13.060Z,-57.50977
2022-08-08T03:47:45.180Z,-57.75725
2022-08-08T03:52:47.108Z,-57.7871
2022-08-08T03:58:31.632Z,-58.32149
2022-08-08T04:03:59.107Z,-58.60194
2022-08-08T04:09:10.206Z,-59.08362
2022-08-08T04:14:34.473Z,-59.47325
2022-08-08T04:19:37.090Z,-59.49006
2022-08-08T04:24:38.040Z,-60.02838
2022-08-08T04:29:55.493Z,-60.12207
2022-08-08T04:35:01.964Z,-60.08217
2022-08-08T04:45:23.850Z,-60.83073
2022-08-08T04:50:34.277Z,-60.97911
2022-08-08T04:55:55.477Z,-61.09023
2022-08-08T05:00:57.725Z,-61.22903
2022-08-08T05:05:59.207Z,-61.65085
2022-08-08T05:11:02.407Z,-61.69799
2022-08-08T05:16:49.380Z,-61.83932
2022-08-08T05:22:01.111Z,-62.02725
2022-08-08T05:27:02.004Z,-61.96543
2022-08-08T05:32:06.210Z,-61.90289
2022-08-08T05:37:17.259Z,-62.25248
2022-08-08T05:42:20.343Z,-62.49809
2022-08-08T05:47:41.592Z,-62.71629
2022-08-08T05:52:54.057Z,-62.58311
2022-08-08T05:58:04.117Z,-63.06633
2022-08-08T06:03:07.387Z,-62.90202
2022-08-08T06:08:20.446Z,-63.02016
2022-08-08T06:13:35.800Z,-63.10311
2022-08-08T06:18:50.244Z,-63.25122
2022-08-08T06:24:04.644Z,-63.10316
2022-08-08T06:29:26.779Z,-63.12619
2022-08-08T06:35:11.984Z,-63.41718
2022-08-08T06:41:06.208Z,-63.49305
2022-08-08T06:46:09.070Z,-63.47573
2022-08-08T06:51:10.310Z,-63.15723
2022-08-08T06:56:12.080Z,-63.43465
2022-08-08T07:02:17.617Z,-63.75881
2022-08-08T07:07:29.377Z,-63.9806
2022-08-08T07:12:34.054Z,-64.21379
2022-08-08T07:17:56.493Z,-64.43021
2022-08-08T07:23:04.723Z,-64.37099
2022-08-08T07:28:07.737Z,-64.40183
2022-08-08T07:33:10.188Z,-64.13844
2022-08-08T07:38:20.862Z,-64.41852
2022-08-08T07:43:37.145Z,-64.67879
2022-08-08T07:48:38.920Z,-65.03281
2022-08-08T07:54:02.337Z,-65.14582
2022-08-08T07:59:04.397Z,-65.23088
2022-08-08T08:04:06.962Z,-65.60507
2022-08-08T08:09:14.719Z,-65.76386
2022-08-08T08:14:17.103Z,-65.80941
2022-08-08T08:19:23.183Z,-65.61464
2022-08-08T08:24:30.314Z,-65.94597
2022-08-08T08:29:31.932Z,-65.83014
2022-08-08T08:34:34.276Z,-65.86533
2022-08-08T08:40:00.039Z,-66.05235
2022-08-08T08:45:21.415Z,-66.28318
2022-08-08T08:50:31.973Z,-65.73746
2022-08-08T08:55:39.368Z,-65.89523
2022-08-08T09:01:04.843Z,-65.57883
2022-08-08T09:06:19.334Z,-65.37162
2022-08-08T09:11:33.191Z,-65.17653
2022-08-08T09:16:34.676Z,-65.4534
2022-08-08T09:26:39.588Z,-64.66112
2022-08-08T09:37:39.522Z,-64.14982
2022-08-08T09:43:00.524Z,-63.4871
2022-08-08T09:48:16.076Z,-63.30772
2022-08-08T09:53:24.929Z,-62.75725
2022-08-08T09:58:57.762Z,-63.01016
2022-08-08T10:03:58.867Z,-62.78787
2022-08-08T10:09:03.586Z,-62.651
2022-08-08T10:14:06.109Z,-62.28398
2022-08-08T10:19:07.356Z,-62.29717
2022-08-08T10:24:12.200Z,-62.12016
2022-08-08T10:29:44.049Z,-61.71946
2022-08-08T10:35:01.327Z,-61.07273
2022-08-08T10:40:07.261Z,-60.82092
2022-08-08T10:45:09.236Z,-60.70949
2022-08-08T10:50:15.546Z,-60.55442
2022-08-08T10:55:39.377Z,-60.41401
2022-08-08T11:00:53.564Z,-60.62796
2022-08-08T11:06:06.046Z,-60.42255
2022-08-08T11:12:00.722Z,-60.514
2022-08-08T11:17:15.598Z,-60.3032
2022-08-08T11:22:16.750Z,-60.30744
2022-08-08T11:27:23.312Z,-59.70169
2022-08-08T11:32:29.166Z,-59.70979
2022-08-08T11:38:34.497Z,-59.65111
2022-08-08T11:43:42.067Z,-59.88285
2022-08-08T11:48:48.779Z,-59.28977
2022-08-08T11:53:50.644Z,-58.99792
2022-08-08T11:58:59.804Z,-59.08067
2022-08-08T12:04:00.803Z,-58.756
2022-08-08T12:09:02.176Z,-58.85847
2022-08-08T12:14:04.363Z,-58.07331
2022-08-08T12:19:05.973Z,-58.2348
2022-08-08T12:24:07.098Z,-57.9881
2022-08-08T12:29:11.337Z,-57.59784
2022-08-08T12:34:14.493Z,-57.54922
2022-08-08T12:39:20.372Z,-57.66065
2022-08-08T12:44:32.332Z,-57.22408
2022-08-08T12:49:45.305Z,-56.69117
2022-08-08T12:54:47.559Z,-56.20513
2022-08-08T13:00:05.800Z,-55.56799
2022-08-08T13:05:15.605Z,-55.73892
2022-08-08T13:10:28.053Z,-55.50705
2022-08-08T13:15:29.155Z,-54.79042
2022-08-08T13:20:30.051Z,-54.70998
2022-08-08T13:25:31.894Z,-54.52288
2022-08-08T13:30:33.303Z,-54.23077
2022-08-08T13:35:38.686Z,-53.93785
2022-08-08T13:40:45.088Z,-54.09762
2022-08-08T13:45:47.210Z,-54.3073
2022-08-08T13:50:53.650Z,-54.16163
2022-08-08T13:55:54.942Z,-54.45815
2022-08-08T14:00:56.396Z,-54.86371
2022-08-08T14:06:00.704Z,-54.67436
2022-08-08T14:11:07.563Z,-54.53689
2022-08-08T14:16:16.562Z,-54.29613
2022-08-08T14:21:20.843Z,-54.48534
2022-08-08T14:26:25.181Z,-54.1867
2022-08-08T14:31:36.841Z,-54.04082
2022-08-08T14:37:13.430Z,-53.6358
2022-08-08T14:42:16.916Z,-53.32301
2022-08-08T14:47:21.700Z,-53.61871
2022-08-08T14:52:23.135Z,-53.06556
2022-08-08T14:58:00.660Z,-53.45672
2022-08-08T15:03:15.689Z,-53.25443
2022-08-08T15:08:22.044Z,-53.40701
2022-08-08T15:13:23.555Z,-53.20881
2022-08-08T15:18:29.784Z,-53.46971
2022-08-08T15:23:34.607Z,-53.35505
2022-08-08T15:28:35.847Z,-53.14822
2022-08-08T15:33:38.544Z,-53.35539
2022-08-08T15:39:01.610Z,-52.80187
2022-08-08T15:44:02.581Z,-52.43059
2022-08-08T15:49:04.555Z,-52.46713
2022-08-08T15:54:05.954Z,-52.19341
2022-08-08T15:59:19.713Z,-51.91458
2022-08-08T16:05:14.012Z,-52.07698
2022-08-08T16:13:03.379Z,-52.0726
2022-08-08T16:18:12.030Z,-52.38806
2022-08-08T16:23:13.490Z,-52.6776
2022-08-08T16:28:22.737Z,-52.37643
2022-08-08T16:33:29.638Z,-52.18545
2022-08-08T16:38:44.843Z,-52.78168
2022-08-08T16:43:50.775Z,-53.02957
2022-08-08T16:48:52.798Z,-53.15391
2022-08-08T16:55:04.081Z,-53.44035
2022-08-08T17:00:26.796Z,-53.24938
2022-08-08T17:05:31.180Z,-53.51146
2022-08-08T17:10:53.646Z,-54.09051
2022-08-08T17:15:59.555Z,-54.46
2022-08-08T17:21:03.664Z,-54.74477
2022-08-08T17:26:05.947Z,-54.56574
2022-08-08T17:31:44.064Z,-55.18279
2022-08-08T17:37:01.047Z,-55.30675
2022-08-08T17:42:04.640Z,-55.46453
2022-08-08T17:47:05.617Z,-55.53784
2022-08-08T17:52:10.625Z,-56.20356
2022-08-08T17:57:11.687Z,-56.57978
2022-08-08T18:02:18.566Z,-56.58652
2022-08-08T18:12:20.645Z,-57.15342
2022-08-08T18:17:28.439Z,-57.29101
2022-08-08T18:23:07.085Z,-57.76273
2022-08-08T18:28:15.664Z,-58.58652
2022-08-08T18:34:11.377Z,-59.14113
2022-08-08T18:39:27.506Z,-59.61618
2022-08-08T18:44:29.964Z,-60.53171
2022-08-08T18:49:40.838Z,-61.52439
2022-08-08T18:55:09.884Z,-62.37649
2022-08-08T19:00:15.827Z,-62.4862
2022-08-08T19:05:20.393Z,-63.80999
2022-08-08T19:10:22.274Z,-64.39099
2022-08-08T19:15:23.899Z,-64.87069
2022-08-08T19:20:27.190Z,-65.53373
2022-08-08T19:26:20.003Z,-66.08994
2022-08-08T19:31:35.690Z,-66.0049
2022-08-08T19:36:36.753Z,-66.496
2022-08-08T19:41:39.225Z,-67.17656
2022-08-08T19:46:42.692Z,-67.61078
2022-08-08T19:51:45.977Z,-67.90024
2022-08-08T19:56:50.382Z,-68.03511
2022-08-08T20:02:02.381Z,-68.66364
2022-08-08T20:08:26.852Z,-68.71961
2022-08-08T20:18:52.468Z,-70.1684
2022-08-08T20:23:57.906Z,-70.02764
2022-08-08T20:28:59.433Z,-70.66698
2022-08-08T20:34:28.083Z,-70.82277
2022-08-08T20:39:33.988Z,-71.17064
2022-08-08T20:44:42.121Z,-71.44738
2022-08-08T20:49:46.786Z,-71.83742
2022-08-08T20:54:48.071Z,-71.96768
2022-08-08T20:59:49.965Z,-72.06486
2022-08-08T21:04:52.717Z,-72.21428
2022-08-08T21:10:07.799Z,-72.40643
2022-08-08T21:15:16.719Z,-72.31664
2022-08-08T21:21:05.592Z,-72.39866
2022-08-08T21:26:10.179Z,-72.6329
2022-08-08T21:31:22.666Z,-72.80014
2022-08-08T21:36:28.492Z,-73.10349
2022-08-08T21:41:42.699Z,-73.27142
2022-08-08T21:48:05.108Z,-73.73981
2022-08-08T21:54:31.739Z,-73.7407
2022-08-08T22:00:03.739Z,-73.74565
2022-08-08T22:05:05.887Z,-73.58236
2022-08-08T22:10:09.346Z,-74.10595
2022-08-08T22:15:11.138Z,-74.31419
2022-08-08T22:20:18.849Z,-74.15001
2022-08-08T22:25:29.572Z,-74.2025
2022-08-08T22:31:21.311Z,-74.60422
2022-08-08T22:36:32.367Z,-74.81981
2022-08-08T22:41:35.634Z,-74.41854
2022-08-08T22:46:40.338Z,-74.6521
2022-08-08T22:51:46.642Z,-75.14982
2022-08-08T22:56:47.814Z,-75.13787
2022-08-08T23:02:02.348Z,-74.96735
2022-08-08T23:22:05.570Z,-75.06728
2022-08-08T23:27:06.684Z,-74.86405
2022-08-08T23:32:10.265Z,-74.9082
2022-08-08T23:42:17.279Z,-74.99366
2022-08-08T23:49:07.544Z,-74.95279
2022-08-08T23:54:41.978Z,-74.54596
2022-08-08T23:59:55.641Z,-74.19193
